Terminal Aerodrome Forecast
Issued by NWS

Home | Current Version | Previous Version | Text Only | Print | Product List | Glossary On
Versions: 1 2 3 4 5 6 7 8 9 10 11 12 13
000
FTUS45 KSLC 200150 AAA
TAFEVW
TAF AMD
KEVW 200150Z 2002/2024 20006KT P6SM BKN110
     FM201100 22012G20KT P6SM SCT120
     FM201500 24025G35KT P6SM SCT050 BKN090
     FM202000 29022G35KT P6SM -RASN SCT025 OVC035=

USA.gov is the U.S. government's official web portal to all federal, state and local government web resources and services.